createdAt,value
2022-10-15T00:01:38.435Z,294.65
2022-10-15T00:04:27.864Z,298.05
2022-10-15T00:07:17.980Z,290.10
2022-10-15T00:10:07.726Z,268.27
2022-10-15T00:12:57.305Z,245.80
2022-10-15T00:15:46.537Z,229.90
2022-10-15T00:18:36.051Z,201.05
2022-10-15T00:21:25.375Z,192.52
2022-10-15T00:24:14.760Z,173.25
2022-10-15T00:27:04.156Z,177.32
2022-10-15T00:29:53.561Z,168.65
2022-10-15T00:32:42.881Z,143.70
2022-10-15T00:35:32.916Z,151.00
2022-10-15T00:38:22.288Z,141.77
2022-10-15T00:41:20.111Z,120.50
2022-10-15T00:44:30.468Z,183.98
2022-10-15T00:47:24.817Z,242.63
2022-10-15T00:50:23.842Z,307.83
2022-10-15T00:53:13.488Z,275.67
2022-10-15T00:56:04.022Z,286.60
2022-10-15T00:58:55.461Z,382.92
2022-10-15T01:01:44.786Z,373.83
2022-10-15T01:04:36.126Z,311.67
2022-10-15T01:07:26.279Z,273.23
2022-10-15T01:10:16.551Z,263.65
2022-10-15T01:13:16.725Z,263.13
2022-10-15T01:16:27.563Z,232.10
2022-10-15T01:19:40.199Z,190.73
2022-10-15T01:22:33.073Z,177.88
2022-10-15T01:25:42.440Z,160.40
2022-10-15T01:28:50.573Z,154.00
2022-10-15T01:32:06.060Z,156.88
2022-10-15T01:35:05.888Z,148.20
2022-10-15T01:38:33.592Z,121.60
2022-10-15T01:41:34.000Z,126.55
2022-10-15T01:44:37.684Z,123.93
2022-10-15T01:48:11.141Z,132.32
2022-10-15T01:51:04.305Z,121.13
2022-10-15T01:53:55.459Z,116.30
2022-10-15T01:56:50.676Z,121.03
2022-10-15T01:59:44.128Z,106.68
2022-10-15T02:02:34.124Z,94.28
2022-10-15T02:05:39.837Z,105.72
2022-10-15T02:09:09.510Z,96.35
2022-10-15T02:12:28.159Z,99.43
2022-10-15T02:16:03.921Z,99.13
2022-10-15T02:19:10.270Z,103.13
2022-10-15T02:22:27.516Z,89.32
2022-10-15T02:25:22.150Z,96.78
2022-10-15T02:28:15.704Z,96.43
2022-10-15T02:31:07.648Z,97.25
2022-10-15T02:34:02.587Z,89.22
2022-10-15T02:36:53.094Z,92.60
2022-10-15T02:39:44.360Z,92.38
2022-10-15T02:42:33.933Z,91.28
2022-10-15T02:45:24.616Z,85.95
2022-10-15T02:48:14.160Z,71.35
2022-10-15T02:51:03.396Z,81.07
2022-10-15T02:53:54.557Z,79.90
2022-10-15T02:56:51.213Z,74.32
2022-10-15T02:59:46.105Z,74.00
2022-10-15T03:02:35.613Z,68.70
2022-10-15T03:05:25.469Z,64.28
2022-10-15T03:08:15.383Z,63.45
2022-10-15T03:11:04.751Z,66.43
2022-10-15T03:13:54.291Z,64.22
2022-10-15T03:16:43.927Z,60.88
2022-10-15T03:19:35.136Z,67.68
2022-10-15T03:22:24.472Z,66.00
2022-10-15T03:25:15.941Z,57.35
2022-10-15T03:28:05.582Z,60.53
2022-10-15T03:31:01.357Z,61.10
2022-10-15T03:33:52.016Z,60.00
2022-10-15T03:36:47.233Z,56.95
2022-10-15T03:39:37.392Z,51.45
2022-10-15T03:42:28.736Z,54.47
2022-10-15T03:45:19.261Z,55.33
2022-10-15T03:48:15.382Z,53.92
2022-10-15T03:51:04.841Z,53.65
2022-10-15T03:53:55.180Z,55.38
2022-10-15T03:56:44.774Z,49.17
2022-10-15T03:59:52.020Z,49.72
2022-10-15T04:02:43.725Z,48.70
2022-10-15T04:05:54.049Z,44.72
2022-10-15T04:08:47.966Z,51.85
2022-10-15T04:11:46.184Z,45.38
2022-10-15T04:14:36.676Z,39.47
2022-10-15T04:17:26.333Z,43.58
2022-10-15T04:20:15.804Z,37.20
2022-10-15T04:23:07.109Z,40.28
2022-10-15T04:26:01.994Z,38.70
2022-10-15T04:28:51.647Z,34.03
2022-10-15T04:31:43.465Z,40.10
2022-10-15T04:34:33.349Z,41.58
2022-10-15T04:37:26.592Z,37.70
2022-10-15T04:40:18.510Z,39.85
2022-10-15T04:43:09.372Z,38.10
2022-10-15T04:46:00.484Z,34.50
2022-10-15T04:48:51.133Z,35.05
2022-10-15T04:51:41.100Z,35.03
2022-10-15T04:54:44.047Z,33.97
2022-10-15T04:57:34.013Z,34.70
2022-10-15T05:00:25.028Z,38.40
2022-10-15T05:03:46.469Z,24.70
2022-10-15T05:06:35.937Z,26.25
2022-10-15T05:09:46.506Z,29.80
2022-10-15T05:12:36.492Z,27.30
2022-10-15T05:15:28.396Z,29.75
2022-10-15T05:18:18.893Z,26.23
2022-10-15T05:21:13.702Z,27.80
2022-10-15T05:24:06.355Z,29.10
2022-10-15T05:27:11.761Z,24.40
2022-10-15T05:30:01.603Z,21.48
2022-10-15T05:33:01.001Z,22.33
2022-10-15T05:35:51.633Z,22.92
2022-10-15T05:38:43.437Z,24.23
2022-10-15T05:41:34.666Z,22.63
2022-10-15T05:44:24.080Z,22.98
2022-10-15T05:47:13.573Z,24.30
2022-10-15T05:50:07.031Z,19.80
2022-10-15T05:53:04.433Z,20.73
2022-10-15T05:56:09.579Z,18.00
2022-10-15T05:58:59.385Z,19.83
2022-10-15T06:01:50.141Z,20.23
2022-10-15T06:04:39.596Z,17.27
2022-10-15T06:07:29.109Z,17.58
2022-10-15T06:10:20.882Z,18.10
2022-10-15T06:13:10.805Z,18.75
2022-10-15T06:16:00.149Z,18.40
2022-10-15T06:18:49.560Z,17.83
2022-10-15T06:21:38.768Z,14.10
2022-10-15T06:24:28.084Z,16.30
2022-10-15T06:27:17.575Z,17.48
2022-10-15T06:30:07.644Z,17.20
2022-10-15T06:32:57.406Z,15.52
2022-10-15T06:35:46.900Z,13.63
2022-10-15T06:38:37.019Z,13.48
2022-10-15T06:41:26.249Z,14.13
2022-10-15T06:44:15.616Z,15.13
2022-10-15T06:47:04.834Z,13.13
2022-10-15T06:49:54.099Z,12.43
2022-10-15T06:52:43.509Z,14.43
2022-10-15T06:55:33.084Z,13.90
2022-10-15T06:58:22.629Z,10.82
2022-10-15T07:01:12.056Z,10.70
2022-10-15T07:04:01.327Z,10.45
2022-10-15T07:06:50.486Z,12.38
2022-10-15T07:09:42.197Z,10.77
2022-10-15T07:12:31.435Z,11.63
2022-10-15T07:15:21.308Z,10.35
2022-10-15T07:18:11.160Z,10.20
2022-10-15T07:21:01.433Z,11.00
2022-10-15T07:23:50.950Z,11.23
2022-10-15T07:26:40.249Z,9.55
2022-10-15T07:29:29.590Z,7.95
2022-10-15T07:32:18.882Z,9.48
2022-10-15T07:35:08.520Z,8.80
2022-10-15T07:38:01.419Z,10.38
2022-10-15T07:40:50.678Z,9.90
2022-10-15T07:43:40.837Z,9.02
2022-10-15T07:46:30.299Z,7.65
2022-10-15T07:49:19.784Z,7.85
2022-10-15T07:52:12.075Z,9.02
2022-10-15T07:55:01.320Z,8.45
2022-10-15T07:57:50.709Z,8.27
2022-10-15T08:00:39.981Z,8.10
2022-10-15T08:03:30.031Z,11.80
2022-10-15T08:06:20.200Z,6.63
2022-10-15T08:09:09.739Z,6.88
2022-10-15T08:11:59.232Z,7.18
2022-10-15T08:14:48.893Z,8.48
2022-10-15T08:17:39.999Z,8.43
2022-10-15T08:20:31.721Z,8.10
2022-10-15T08:23:21.390Z,8.90
2022-10-15T08:26:10.960Z,7.55
2022-10-15T08:29:00.493Z,7.78
2022-10-15T08:31:50.493Z,9.00
2022-10-15T08:34:45.872Z,8.98
2022-10-15T08:37:35.134Z,7.63
2022-10-15T08:40:24.435Z,6.65
2022-10-15T08:43:27.640Z,7.63
2022-10-15T08:46:32.141Z,8.82
2022-10-15T08:49:35.119Z,6.57
2022-10-15T08:52:43.565Z,6.25
2022-10-15T08:55:42.176Z,9.30
2022-10-15T08:58:49.640Z,8.18
2022-10-15T09:02:00.210Z,8.63
2022-10-15T09:05:15.550Z,8.35
2022-10-15T09:08:20.237Z,7.35
2022-10-15T09:11:30.409Z,8.77
2022-10-15T09:14:23.669Z,8.35
2022-10-15T09:17:28.239Z,10.10
2022-10-15T09:20:21.353Z,7.72
2022-10-15T09:23:21.310Z,8.13
2022-10-15T09:26:13.298Z,8.95
2022-10-15T09:29:05.884Z,7.68
2022-10-15T09:35:21.880Z,7.18
2022-10-15T09:38:40.225Z,8.85
2022-10-15T09:41:46.955Z,7.75
2022-10-15T09:44:44.393Z,9.95
2022-10-15T09:47:36.357Z,8.25
2022-10-15T09:50:27.300Z,9.70
2022-10-15T09:53:22.246Z,7.63
2022-10-15T09:56:21.320Z,8.88
2022-10-15T09:59:21.371Z,8.70
2022-10-15T10:02:17.104Z,8.68
2022-10-15T10:05:30.551Z,9.45
2022-10-15T10:08:26.193Z,7.80
2022-10-15T10:11:15.693Z,8.40
2022-10-15T10:14:06.035Z,7.25
2022-10-15T10:17:17.690Z,7.78
2022-10-15T10:20:20.250Z,7.72
2022-10-15T10:23:25.457Z,7.38
2022-10-15T10:26:15.634Z,7.55
2022-10-15T10:29:15.800Z,7.50
2022-10-15T10:32:26.060Z,7.77
2022-10-15T10:35:28.756Z,7.47
2022-10-15T10:38:34.540Z,8.52
2022-10-15T10:41:23.980Z,9.57
2022-10-15T10:44:27.739Z,9.52
2022-10-15T10:47:25.757Z,7.75
2022-10-15T10:50:32.044Z,8.18
2022-10-15T10:53:26.494Z,9.32
2022-10-15T10:56:19.632Z,8.02
2022-10-15T10:59:20.493Z,9.50
2022-10-15T11:02:14.881Z,7.45
2022-10-15T11:05:04.890Z,7.55
2022-10-15T11:08:11.327Z,7.40
2022-10-15T11:11:16.099Z,8.88
2022-10-15T11:14:26.081Z,8.73
2022-10-15T11:17:33.431Z,9.95
2022-10-15T11:20:51.043Z,8.73
2022-10-15T11:24:10.337Z,8.82
2022-10-15T11:27:23.914Z,8.30
2022-10-15T11:30:36.265Z,8.82
2022-10-15T11:34:04.016Z,8.55
2022-10-15T11:36:55.876Z,14.80
2022-10-15T11:39:51.760Z,11.57
2022-10-15T11:42:57.860Z,9.65
2022-10-15T11:46:04.319Z,12.80
2022-10-15T11:48:59.500Z,12.07
2022-10-15T11:52:07.816Z,14.38
2022-10-15T11:55:05.649Z,15.73
2022-10-15T11:58:01.498Z,11.75
2022-10-15T12:00:54.820Z,15.38
2022-10-15T12:04:19.213Z,16.20
2022-10-15T12:07:17.522Z,12.60
2022-10-15T12:10:14.156Z,16.70
2022-10-15T12:13:09.739Z,11.65
2022-10-15T12:16:18.432Z,15.98
2022-10-15T12:19:10.935Z,13.98
2022-10-15T12:22:00.260Z,13.65
2022-10-15T12:24:50.641Z,17.42
2022-10-15T12:27:39.981Z,13.65
2022-10-15T12:30:35.442Z,17.55
2022-10-15T12:33:36.081Z,15.43
2022-10-15T12:36:33.304Z,12.50
2022-10-15T12:39:51.837Z,15.15
2022-10-15T12:42:40.565Z,23.33
2022-10-15T12:45:30.140Z,13.30
2022-10-15T12:48:21.445Z,16.88
2022-10-15T12:51:26.085Z,18.35
2022-10-15T12:54:42.332Z,16.92
2022-10-15T12:57:38.476Z,13.55
2022-10-15T13:00:32.647Z,13.60
2022-10-15T13:03:47.568Z,14.95
2022-10-15T13:06:41.198Z,15.23
2022-10-15T13:09:31.989Z,21.17
2022-10-15T13:12:26.157Z,15.75
2022-10-15T13:15:17.916Z,25.88
2022-10-15T13:18:14.617Z,17.33
2022-10-15T13:21:05.360Z,14.77
2022-10-15T13:23:56.033Z,18.63
2022-10-15T13:26:45.740Z,21.92
2022-10-15T13:29:35.030Z,17.65
2022-10-15T13:32:25.588Z,27.98
2022-10-15T13:35:21.319Z,18.40
2022-10-15T13:38:23.075Z,19.90
2022-10-15T13:41:12.844Z,16.27
2022-10-15T13:44:03.760Z,17.73
2022-10-15T13:46:53.039Z,24.95
2022-10-15T13:49:42.479Z,21.40
2022-10-15T13:52:31.873Z,21.58
2022-10-15T13:55:29.053Z,15.30
2022-10-15T13:58:23.659Z,26.65
2022-10-15T14:01:22.315Z,20.08
2022-10-15T14:04:20.874Z,18.98
2022-10-15T14:07:28.470Z,18.40
2022-10-15T14:10:18.157Z,19.10
2022-10-15T14:13:07.399Z,22.85
2022-10-15T14:16:14.475Z,18.23
2022-10-15T14:19:07.389Z,16.75
2022-10-15T14:24:54.529Z,15.32
2022-10-15T14:27:47.235Z,12.55
2022-10-15T14:30:40.520Z,16.83
2022-10-15T14:33:42.171Z,16.67
2022-10-15T14:36:42.090Z,14.38
2022-10-15T14:39:32.997Z,20.10
2022-10-15T14:42:29.936Z,21.45
2022-10-15T14:45:19.354Z,15.68
2022-10-15T14:48:22.420Z,18.65
2022-10-15T14:54:26.340Z,13.98
2022-10-15T14:57:28.195Z,15.57
2022-10-15T15:00:28.898Z,13.13
2022-10-15T15:03:27.775Z,14.85
2022-10-15T15:06:19.339Z,13.82
2022-10-15T15:09:10.566Z,12.38
2022-10-15T15:12:00.775Z,12.90
2022-10-15T15:14:51.382Z,12.23
2022-10-15T15:17:42.691Z,11.70
2022-10-15T15:20:33.436Z,12.55
2022-10-15T15:23:27.169Z,13.30
2022-10-15T15:26:17.540Z,13.18
2022-10-15T15:29:17.447Z,11.13
2022-10-15T15:32:14.622Z,14.75
2022-10-15T15:35:21.935Z,11.75
2022-10-15T15:38:14.093Z,12.75
2022-10-15T15:41:15.369Z,10.27
2022-10-15T15:44:06.730Z,12.07
2022-10-15T15:46:56.990Z,12.77
2022-10-15T15:49:48.178Z,16.10
2022-10-15T15:52:40.645Z,13.65
2022-10-15T15:55:34.414Z,11.32
2022-10-15T15:58:25.583Z,13.35
2022-10-15T16:01:16.059Z,13.68
2022-10-15T16:04:07.660Z,14.05
2022-10-15T16:06:58.383Z,9.98
2022-10-15T16:09:47.840Z,10.85
2022-10-15T16:12:38.380Z,11.98
2022-10-15T16:15:29.433Z,14.65
2022-10-15T16:18:19.853Z,13.02
2022-10-15T16:21:11.157Z,15.02
2022-10-15T16:26:51.992Z,11.90
2022-10-15T16:29:42.015Z,11.57
2022-10-15T16:32:33.673Z,10.13
2022-10-15T16:35:24.796Z,14.02
2022-10-15T16:38:15.435Z,10.80
2022-10-15T16:41:06.015Z,13.45
2022-10-15T16:43:56.684Z,9.95
2022-10-15T16:46:46.812Z,10.38
2022-10-15T16:49:37.280Z,10.00
2022-10-15T16:52:30.764Z,9.65
2022-10-15T16:55:21.815Z,11.82
2022-10-15T16:58:12.232Z,11.82
2022-10-15T17:01:08.367Z,10.77
2022-10-15T17:04:01.439Z,10.45
2022-10-15T17:06:51.981Z,11.73
2022-10-15T17:09:42.268Z,13.50
2022-10-15T17:12:32.032Z,11.90
2022-10-15T17:15:22.828Z,11.63
2022-10-15T17:18:13.089Z,11.88
2022-10-15T17:21:03.083Z,12.90
2022-10-15T17:23:56.534Z,12.40
2022-10-15T17:26:47.752Z,13.02
2022-10-15T17:29:38.832Z,10.55
2022-10-15T17:32:29.327Z,11.00
2022-10-15T17:35:19.284Z,10.77
2022-10-15T17:38:09.046Z,12.93
2022-10-15T17:40:59.696Z,10.05
2022-10-15T17:43:49.709Z,12.15
2022-10-15T17:46:40.320Z,9.80
2022-10-15T17:49:30.789Z,8.88
2022-10-15T17:52:21.356Z,12.57
2022-10-15T17:55:12.616Z,11.02
2022-10-15T17:58:03.496Z,9.50
2022-10-15T18:00:59.435Z,8.00
2022-10-15T18:03:51.660Z,18.88
2022-10-15T18:06:45.837Z,69.65
2022-10-15T18:09:47.372Z,106.38
2022-10-15T18:12:38.605Z,102.75
2022-10-15T18:15:29.737Z,96.05
2022-10-15T18:18:20.606Z,84.35
2022-10-15T18:21:18.250Z,89.35
2022-10-15T18:24:09.927Z,95.47
2022-10-15T18:27:00.617Z,71.78
2022-10-15T18:29:51.336Z,68.00
2022-10-15T18:32:42.081Z,75.07
2022-10-15T18:35:32.651Z,55.63
2022-10-15T18:38:23.657Z,61.75
2022-10-15T18:41:23.865Z,51.47
2022-10-15T18:44:17.890Z,51.08
2022-10-15T18:47:09.045Z,51.63
2022-10-15T18:50:06.133Z,41.85
2022-10-15T18:52:56.348Z,45.70
2022-10-15T18:55:48.157Z,42.30
2022-10-15T18:58:40.758Z,41.38
2022-10-15T19:01:40.495Z,40.58
2022-10-15T19:04:31.620Z,45.35
2022-10-15T19:07:22.222Z,48.25
2022-10-15T19:10:14.202Z,44.60
2022-10-15T19:13:07.389Z,47.13
2022-10-15T19:15:57.955Z,43.53
2022-10-15T19:18:48.508Z,42.63
2022-10-15T19:21:38.961Z,35.22
2022-10-15T19:24:30.056Z,34.63
2022-10-15T19:27:19.977Z,34.08
2022-10-15T19:30:10.687Z,40.05
2022-10-15T19:33:00.878Z,34.10
2022-10-15T19:35:51.476Z,38.58
2022-10-15T19:38:42.882Z,49.53
2022-10-15T19:41:41.379Z,37.40
2022-10-15T19:44:32.753Z,35.30
2022-10-15T23:33:59.121Z,15.45
2022-10-15T23:36:50.161Z,18.10
2022-10-15T23:39:42.659Z,14.52
2022-10-15T23:42:34.696Z,13.32
2022-10-15T23:45:24.876Z,11.90
2022-10-15T23:48:17.081Z,15.02
2022-10-15T23:51:24.210Z,13.52
2022-10-15T23:54:17.335Z,11.93
2022-10-15T23:57:08.122Z,12.20
2022-10-15T23:59:58.406Z,13.73
